Terminal Aerodrome Forecast
Issued by NWS Missoula, MT

Home | Current Version | Previous Version | Text Only | Print | Product List | Glossary On
Versions: 1 2 3 4 5 6 7 8 9 10 11 12 13 14 15 16 17 18
250
FTUS45 KMSO 240534
TAFGPI
TAF
KGPI 240534Z 2406/2506 15010KT 6SM -RA BR SCT025 OVC035
     FM241000 15004KT 4SM BR VCSH SCT005 BKN030
     FM241400 VRB05KT P6SM SCT080=

USA.gov is the U.S. government's official web portal to all federal, state and local government web resources and services.